Time;durP1;ratioP1;P1;durP2;ratioP2;P2;SDS_P1;SDS_P2;PMS_P1;PMS_P2;Temp;Humidity;BMP_temperature;BMP_pressure;BME280_temperature;BME280_humidity;BME280_pressure;Samples;Min_cycle;Max_cycle;Signal;HPM_P1;HPM_P2
2022/01/27 00:04:11;;;;;;;31.52;10.38;;;;;;;;;;4946797;28;20459;-59
2022/01/27 00:06:40;;;;;;;30.13;9.55;;;;;;;;;;4956764;28;20038;-59
2022/01/27 00:09:42;;;;;;;31.98;9.82;;;;;;;;;;4941590;28;20120;-59
2022/01/27 00:11:56;;;;;;;28.73;9.98;;;;;;;;;;4945853;28;20039;-60
2022/01/27 00:14:23;;;;;;;36.13;12.25;;;;;;;;;;4953108;28;20054;-59
2022/01/27 00:16:56;;;;;;;30.95;11.35;;;;;;;;;;4928315;28;20122;-60
2022/01/27 00:19:21;;;;;;;39.80;11.40;;;;;;;;;;4938922;28;20048;-59
2022/01/27 00:21:49;;;;;;;42.55;11.30;;;;;;;;;;4931229;28;20782;-59
2022/01/27 00:24:15;;;;;;;26.67;11.20;;;;;;;;;;4934643;28;20116;-60
2022/01/27 00:26:41;;;;;;;37.63;11.57;;;;;;;;;;4948865;28;20054;-60
2022/01/27 00:29:07;;;;;;;40.65;11.00;;;;;;;;;;4960367;28;20121;-58
2022/01/27 00:31:33;;;;;;;31.60;10.20;;;;;;;;;;4945080;28;20065;-61
2022/01/27 00:34:04;;;;;;;33.90;12.00;;;;;;;;;;4960718;28;20043;-61
2022/01/27 00:36:32;;;;;;;32.03;11.50;;;;;;;;;;4959779;28;20030;-61
2022/01/27 00:38:58;;;;;;;39.35;12.00;;;;;;;;;;4943720;28;20039;-58
2022/01/27 00:41:23;;;;;;;32.28;11.93;;;;;;;;;;4959148;28;20147;-60
2022/01/27 00:43:50;;;;;;;25.60;9.70;;;;;;;;;;4944058;28;20074;-60
2022/01/27 00:46:18;;;;;;;39.60;11.98;;;;;;;;;;4941254;28;20253;-59
2022/01/27 00:48:47;;;;;;;28.95;11.68;;;;;;;;;;4930951;28;20037;-59
2022/01/27 00:51:20;;;;;;;34.15;12.05;;;;;;;;;;4948742;28;20042;-59
2022/01/27 00:53:54;;;;;;;25.58;11.15;;;;;;;;;;4960453;28;20877;-58
2022/01/27 00:56:32;;;;;;;29.10;12.55;;;;;;;;;;4960291;28;20042;-60
2022/01/27 01:01:43;;;;;;;44.17;12.43;;;;;;;;;;4960116;28;20067;-61
2022/01/27 01:04:10;;;;;;;48.08;12.75;;;;;;;;;;4963066;28;20145;-59
2022/01/27 01:06:41;;;;;;;31.42;10.50;;;;;;;;;;4964170;28;20646;-61
2022/01/27 01:15:16;;;;;;;41.28;11.25;;;;;;;;;;4911248;29;20202;-61
2022/01/27 01:17:57;;;;;;;35.33;12.38;;;;;;;;;;4959494;28;20046;-61
2022/01/27 01:21:22;;;;;;;35.10;10.93;;;;;;;;;;4962914;28;20265;-58
2022/01/27 01:32:39;;;;;;;38.78;11.90;;;;;;;;;;4950104;28;20035;-60
2022/01/27 01:34:28;;;;;;;39.60;14.02;;;;;;;;;;4955410;28;20128;-59
2022/01/27 01:37:02;;;;;;;39.15;12.98;;;;;;;;;;4950290;28;20483;-59
2022/01/27 01:39:33;;;;;;;51.65;13.45;;;;;;;;;;4961092;28;20034;-60
2022/01/27 01:41:59;;;;;;;50.58;14.70;;;;;;;;;;4948023;28;20057;-59
2022/01/27 01:44:28;;;;;;;33.40;13.05;;;;;;;;;;4948644;28;20550;-60
2022/01/27 01:46:55;;;;;;;38.40;14.35;;;;;;;;;;4946022;28;20181;-60
2022/01/27 01:49:26;;;;;;;39.78;14.45;;;;;;;;;;4934480;28;21916;-61
2022/01/27 01:51:55;;;;;;;39.05;14.63;;;;;;;;;;4937849;28;20231;-59
2022/01/27 01:54:23;;;;;;;33.83;14.43;;;;;;;;;;4964748;28;20022;-58
2022/01/27 01:56:51;;;;;;;45.85;15.25;;;;;;;;;;4950775;28;20035;-58
2022/01/27 01:59:17;;;;;;;38.55;15.13;;;;;;;;;;4959897;28;20034;-59
2022/01/27 02:01:44;;;;;;;40.80;14.25;;;;;;;;;;4962012;28;20047;-60
2022/01/27 02:04:10;;;;;;;50.35;15.30;;;;;;;;;;4953868;28;20942;-59
2022/01/27 02:06:42;;;;;;;36.03;14.20;;;;;;;;;;4963115;28;20178;-59
2022/01/27 02:09:46;;;;;;;41.65;13.57;;;;;;;;;;4962849;28;20038;-61
2022/01/27 02:20:09;;;;;;;39.30;13.02;;;;;;;;;;4963021;28;20035;-59
2022/01/27 02:22:37;;;;;;;42.30;14.50;;;;;;;;;;4962053;28;20142;-59
2022/01/27 02:25:27;;;;;;;38.80;14.65;;;;;;;;;;4945679;28;20572;-59
2022/01/27 02:27:56;;;;;;;43.63;16.42;;;;;;;;;;4961946;28;20039;-59
2022/01/27 02:30:22;;;;;;;38.13;13.98;;;;;;;;;;4963147;28;20946;-59
2022/01/27 02:32:54;;;;;;;41.22;15.35;;;;;;;;;;4952152;28;20030;-59
2022/01/27 02:35:21;;;;;;;38.65;14.82;;;;;;;;;;4963109;28;20042;-60
2022/01/27 02:37:50;;;;;;;38.22;14.30;;;;;;;;;;4945083;28;20943;-59
2022/01/27 02:40:25;;;;;;;31.75;13.80;;;;;;;;;;4960593;28;20145;-59
2022/01/27 02:42:50;;;;;;;38.25;14.13;;;;;;;;;;4951786;28;20043;-60
2022/01/27 02:45:26;;;;;;;39.05;14.90;;;;;;;;;;4947590;28;20026;-59
2022/01/27 02:47:52;;;;;;;40.92;15.38;;;;;;;;;;4960318;28;20455;-60
2022/01/27 02:50:19;;;;;;;42.85;15.35;;;;;;;;;;4943837;28;20033;-58
2022/01/27 02:52:48;;;;;;;49.40;15.48;;;;;;;;;;4949105;28;20031;-59
2022/01/27 02:55:13;;;;;;;41.90;14.85;;;;;;;;;;4932864;28;20038;-59
2022/01/27 02:57:43;;;;;;;45.00;16.55;;;;;;;;;;4927800;28;20065;-58
2022/01/27 03:00:12;;;;;;;42.95;14.88;;;;;;;;;;4951985;28;20041;-60
2022/01/27 03:02:40;;;;;;;42.45;15.52;;;;;;;;;;4944615;28;20039;-60
2022/01/27 03:05:08;;;;;;;42.05;15.38;;;;;;;;;;4947163;28;20029;-59
2022/01/27 03:07:34;;;;;;;49.00;15.35;;;;;;;;;;4962247;28;20093;-60
2022/01/27 03:09:59;;;;;;;37.35;15.52;;;;;;;;;;4936390;28;20035;-61
2022/01/27 03:12:29;;;;;;;35.58;14.80;;;;;;;;;;4960936;28;20035;-60
2022/01/27 03:14:58;;;;;;;37.63;14.07;;;;;;;;;;4962822;28;20053;-60
2022/01/27 03:17:26;;;;;;;41.55;15.48;;;;;;;;;;4945567;28;20116;-59
2022/01/27 03:19:52;;;;;;;42.90;15.60;;;;;;;;;;4961671;28;20027;-61
2022/01/27 03:22:19;;;;;;;45.67;14.95;;;;;;;;;;4945310;28;20546;-59
2022/01/27 03:24:47;;;;;;;42.80;15.50;;;;;;;;;;4959761;28;20077;-62
2022/01/27 03:27:22;;;;;;;39.00;16.08;;;;;;;;;;4958071;28;20058;-60
2022/01/27 03:29:48;;;;;;;37.05;14.45;;;;;;;;;;4960317;28;21010;-59
2022/01/27 03:32:16;;;;;;;41.58;14.27;;;;;;;;;;4960169;28;20034;-62
2022/01/27 03:34:44;;;;;;;35.38;13.07;;;;;;;;;;4961057;28;20042;-60
2022/01/27 03:37:12;;;;;;;36.88;13.52;;;;;;;;;;4960792;28;20026;-60
2022/01/27 03:39:40;;;;;;;40.10;13.68;;;;;;;;;;4958768;28;20049;-59
2022/01/27 03:42:07;;;;;;;33.53;14.07;;;;;;;;;;4942185;28;20030;-60
2022/01/27 03:44:35;;;;;;;41.47;14.25;;;;;;;;;;4962332;28;20035;-60
2022/01/27 03:47:04;;;;;;;44.08;13.55;;;;;;;;;;4962459;28;20595;-59
2022/01/27 03:49:32;;;;;;;42.58;13.60;;;;;;;;;;4950346;28;20137;-60
2022/01/27 03:52:01;;;;;;;39.92;13.80;;;;;;;;;;4931652;28;20026;-60
2022/01/27 03:54:27;;;;;;;39.40;13.68;;;;;;;;;;4948230;28;20641;-58
2022/01/27 03:56:54;;;;;;;47.20;13.55;;;;;;;;;;4934482;28;20038;-59
2022/01/27 03:59:22;;;;;;;44.83;12.75;;;;;;;;;;4932734;28;20050;-60
2022/01/27 04:01:50;;;;;;;33.05;12.60;;;;;;;;;;4961977;28;20051;-61
2022/01/27 04:04:19;;;;;;;32.95;13.50;;;;;;;;;;4945494;28;20093;-59
2022/01/27 04:06:51;;;;;;;46.95;14.20;;;;;;;;;;4937104;28;20033;-59
2022/01/27 04:09:19;;;;;;;44.03;14.48;;;;;;;;;;4944304;28;20038;-61
2022/01/27 04:11:47;;;;;;;39.40;13.07;;;;;;;;;;4960442;28;20038;-60
2022/01/27 04:14:12;;;;;;;35.58;13.43;;;;;;;;;;4941957;28;20188;-59
2022/01/27 04:16:40;;;;;;;32.80;12.18;;;;;;;;;;4962272;28;21788;-58
2022/01/27 04:19:08;;;;;;;35.35;12.95;;;;;;;;;;4944719;28;20034;-59
2022/01/27 04:21:36;;;;;;;38.45;12.65;;;;;;;;;;4945299;28;20112;-60
2022/01/27 04:24:02;;;;;;;34.15;12.70;;;;;;;;;;4949548;28;20106;-59
2022/01/27 04:26:39;;;;;;;42.10;14.75;;;;;;;;;;4958421;28;20657;-60
2022/01/27 04:29:08;;;;;;;39.15;12.50;;;;;;;;;;4958985;28;20144;-59
2022/01/27 04:31:37;;;;;;;45.40;14.00;;;;;;;;;;4948458;28;20041;-59
2022/01/27 04:34:03;;;;;;;35.97;12.05;;;;;;;;;;4930469;28;20107;-60
2022/01/27 04:36:31;;;;;;;30.10;12.30;;;;;;;;;;4960944;28;20030;-58
2022/01/27 04:44:15;;;;;;;38.67;12.60;;;;;;;;;;4939698;28;20046;-58
2022/01/27 04:47:03;;;;;;;28.58;11.05;;;;;;;;;;4960676;28;20030;-59
2022/01/27 04:49:28;;;;;;;49.10;11.45;;;;;;;;;;4961068;28;20064;-59
2022/01/27 04:51:54;;;;;;;38.47;12.73;;;;;;;;;;4944347;28;20034;-59
2022/01/27 04:54:29;;;;;;;34.50;12.00;;;;;;;;;;4960498;28;20258;-59
2022/01/27 04:57:00;;;;;;;29.42;11.02;;;;;;;;;;4926694;28;20371;-61
2022/01/27 04:59:32;;;;;;;35.00;10.77;;;;;;;;;;4942943;28;20066;-57
2022/01/27 05:02:03;;;;;;;40.85;11.85;;;;;;;;;;4945345;28;20501;-60
2022/01/27 05:04:39;;;;;;;32.93;11.23;;;;;;;;;;4961803;28;20053;-58
2022/01/27 05:07:10;;;;;;;36.97;11.32;;;;;;;;;;4946411;28;20182;-58
2022/01/27 05:09:46;;;;;;;29.10;11.85;;;;;;;;;;4946452;28;20077;-60
2022/01/27 05:12:26;;;;;;;38.95;11.63;;;;;;;;;;4960233;28;20038;-58
2022/01/27 05:14:54;;;;;;;39.00;11.85;;;;;;;;;;4949215;28;20054;-58
2022/01/27 05:17:20;;;;;;;25.27;10.70;;;;;;;;;;4950159;28;20130;-58
2022/01/27 05:19:51;;;;;;;33.42;10.82;;;;;;;;;;4950895;28;20113;-58
2022/01/27 05:22:21;;;;;;;35.30;12.50;;;;;;;;;;4961808;28;20044;-57
2022/01/27 05:24:51;;;;;;;37.85;13.13;;;;;;;;;;4950444;28;20097;-58
2022/01/27 05:27:17;;;;;;;36.42;12.10;;;;;;;;;;4959432;28;20578;-58
2022/01/27 05:29:44;;;;;;;33.95;11.27;;;;;;;;;;4962304;28;20542;-59
2022/01/27 05:32:15;;;;;;;34.47;11.55;;;;;;;;;;4959928;28;20072;-59
2022/01/27 05:35:00;;;;;;;42.05;11.20;;;;;;;;;;4962329;28;20130;-59
2022/01/27 05:37:28;;;;;;;30.88;10.82;;;;;;;;;;4936669;28;20038;-58
2022/01/27 05:39:57;;;;;;;44.05;10.50;;;;;;;;;;4946274;28;20034;-59
2022/01/27 05:42:23;;;;;;;44.03;9.40;;;;;;;;;;4937156;28;20031;-58
2022/01/27 05:44:51;;;;;;;25.52;11.18;;;;;;;;;;4963126;28;20085;-58
2022/01/27 05:47:21;;;;;;;33.33;10.73;;;;;;;;;;4952856;28;20042;-61
2022/01/27 05:49:49;;;;;;;36.38;11.10;;;;;;;;;;4946152;28;20091;-58
2022/01/27 05:52:16;;;;;;;29.88;10.98;;;;;;;;;;4936307;28;20030;-58
2022/01/27 05:54:43;;;;;;;43.38;10.93;;;;;;;;;;4940572;28;20125;-57
2022/01/27 05:57:20;;;;;;;38.38;11.43;;;;;;;;;;4948473;28;20022;-59
2022/01/27 05:59:48;;;;;;;44.53;11.85;;;;;;;;;;4940655;28;20474;-57
2022/01/27 06:02:16;;;;;;;40.28;11.20;;;;;;;;;;4946715;28;20026;-54
2022/01/27 06:04:41;;;;;;;37.30;11.43;;;;;;;;;;4963917;28;20057;-57
2022/01/27 06:07:06;;;;;;;41.42;10.23;;;;;;;;;;4952794;28;20026;-57
2022/01/27 06:09:34;;;;;;;38.47;11.63;;;;;;;;;;4963239;28;20027;-56
2022/01/27 06:11:59;;;;;;;32.22;10.10;;;;;;;;;;4934970;28;20041;-57
2022/01/27 06:14:27;;;;;;;38.28;10.95;;;;;;;;;;4963336;28;20547;-56
2022/01/27 06:16:55;;;;;;;33.95;10.48;;;;;;;;;;4963424;28;20023;-57
2022/01/27 06:19:25;;;;;;;26.60;9.82;;;;;;;;;;4945438;28;20057;-56
2022/01/27 06:21:53;;;;;;;31.60;10.85;;;;;;;;;;4963433;28;20490;-57
2022/01/27 06:24:22;;;;;;;30.67;10.45;;;;;;;;;;4963917;28;20034;-57
2022/01/27 06:26:50;;;;;;;44.38;9.77;;;;;;;;;;4958393;28;20039;-58
2022/01/27 06:29:16;;;;;;;35.97;11.48;;;;;;;;;;4958119;28;20030;-58
2022/01/27 06:31:46;;;;;;;44.97;10.30;;;;;;;;;;4961067;28;20117;-58
2022/01/27 06:34:11;;;;;;;21.95;9.88;;;;;;;;;;4961767;28;20029;-58
2022/01/27 06:36:37;;;;;;;34.25;8.95;;;;;;;;;;4959827;28;20042;-58
2022/01/27 06:39:02;;;;;;;27.52;9.93;;;;;;;;;;4948436;28;20081;-58
2022/01/27 06:41:27;;;;;;;30.23;9.23;;;;;;;;;;4962656;28;20030;-59
2022/01/27 06:43:54;;;;;;;34.35;10.27;;;;;;;;;;4936802;28;20042;-59
2022/01/27 06:46:22;;;;;;;29.25;10.07;;;;;;;;;;4937158;28;21013;-59
2022/01/27 06:48:48;;;;;;;37.88;10.77;;;;;;;;;;4961549;28;20019;-59
2022/01/27 06:51:13;;;;;;;30.02;9.80;;;;;;;;;;4963490;28;20371;-58
2022/01/27 06:53:39;;;;;;;29.85;9.15;;;;;;;;;;4945404;28;20062;-58
2022/01/27 06:56:04;;;;;;;34.63;9.27;;;;;;;;;;4954456;28;20070;-58
2022/01/27 06:58:36;;;;;;;22.70;8.85;;;;;;;;;;4959060;28;20204;-57
2022/01/27 07:01:02;;;;;;;26.63;8.93;;;;;;;;;;4946689;28;20497;-57
2022/01/27 07:03:29;;;;;;;30.15;9.23;;;;;;;;;;4944246;28;20023;-57
2022/01/27 07:05:59;;;;;;;41.05;9.60;;;;;;;;;;4947096;28;20034;-58
2022/01/27 07:08:27;;;;;;;26.63;8.60;;;;;;;;;;4962163;28;20114;-58
2022/01/27 07:10:55;;;;;;;18.75;8.45;;;;;;;;;;4947078;28;20596;-57
2022/01/27 07:13:25;;;;;;;22.55;8.18;;;;;;;;;;4945546;28;20035;-57
2022/01/27 07:15:56;;;;;;;29.17;8.52;;;;;;;;;;4961679;28;20626;-57
2022/01/27 07:18:27;;;;;;;28.67;8.32;;;;;;;;;;4963014;28;20040;-58
2022/01/27 07:20:52;;;;;;;28.48;9.15;;;;;;;;;;4962416;28;20042;-59
2022/01/27 07:23:17;;;;;;;28.02;9.15;;;;;;;;;;4951297;28;20248;-57
2022/01/27 07:25:43;;;;;;;24.90;8.20;;;;;;;;;;4961857;28;20041;-56
2022/01/27 07:28:13;;;;;;;19.65;6.90;;;;;;;;;;4961436;28;20050;-59
2022/01/27 07:30:41;;;;;;;26.17;7.45;;;;;;;;;;4947513;28;20031;-59
2022/01/27 07:33:06;;;;;;;32.03;7.93;;;;;;;;;;4953946;28;20049;-60
2022/01/27 07:35:32;;;;;;;18.20;7.45;;;;;;;;;;4959160;28;20735;-59
2022/01/27 07:37:58;;;;;;;25.70;6.88;;;;;;;;;;4960730;28;20034;-58
2022/01/27 07:40:24;;;;;;;19.30;7.55;;;;;;;;;;4961911;28;20034;-58
2022/01/27 07:42:52;;;;;;;30.77;8.57;;;;;;;;;;4917910;28;20031;-57
2022/01/27 07:45:20;;;;;;;24.55;8.15;;;;;;;;;;4950261;28;20037;-57
2022/01/27 07:47:50;;;;;;;35.78;8.25;;;;;;;;;;4926796;28;20034;-58
2022/01/27 07:50:18;;;;;;;26.70;7.85;;;;;;;;;;4960053;28;20428;-58
2022/01/27 07:52:43;;;;;;;31.30;7.90;;;;;;;;;;4961782;28;20109;-58
2022/01/27 07:55:14;;;;;;;32.33;8.10;;;;;;;;;;4960259;28;20038;-58
2022/01/27 07:57:44;;;;;;;40.08;8.30;;;;;;;;;;4935981;28;20042;-58
2022/01/27 08:00:11;;;;;;;24.23;7.45;;;;;;;;;;4954288;28;20046;-58
2022/01/27 08:02:38;;;;;;;34.42;8.25;;;;;;;;;;4943399;28;20466;-58
2022/01/27 08:05:09;;;;;;;30.55;7.50;;;;;;;;;;4953754;28;20035;-60
2022/01/27 08:07:37;;;;;;;41.35;8.82;;;;;;;;;;4950435;28;20055;-59
2022/01/27 08:10:05;;;;;;;41.65;7.10;;;;;;;;;;4943265;28;20073;-58
2022/01/27 08:12:37;;;;;;;27.20;7.45;;;;;;;;;;4960990;28;20619;-58
2022/01/27 08:15:03;;;;;;;24.48;6.90;;;;;;;;;;4961777;28;20053;-58
2022/01/27 08:17:33;;;;;;;24.63;6.35;;;;;;;;;;4944030;28;20065;-58
2022/01/27 08:19:59;;;;;;;25.05;7.43;;;;;;;;;;4961742;28;20438;-57
2022/01/27 08:22:27;;;;;;;17.17;6.30;;;;;;;;;;4949988;28;20034;-58
2022/01/27 08:24:55;;;;;;;24.00;6.80;;;;;;;;;;4950287;28;20049;-57
2022/01/27 08:27:26;;;;;;;20.92;6.32;;;;;;;;;;4961303;28;20038;-55
2022/01/27 08:29:59;;;;;;;36.33;7.10;;;;;;;;;;4960961;28;20031;-58
2022/01/27 08:32:44;;;;;;;16.98;4.97;;;;;;;;;;4944048;28;20080;-58
2022/01/27 08:35:10;;;;;;;;;;;;;;;;;;4959174;28;20050;-58
2022/01/27 08:37:37;;;;;;;30.08;6.28;;;;;;;;;;4949597;28;19925;-58
2022/01/27 08:40:08;;;;;;;22.75;5.15;;;;;;;;;;4961641;28;20046;-57
2022/01/27 08:42:43;;;;;;;33.50;5.80;;;;;;;;;;4942932;28;20035;-59
2022/01/27 08:45:15;;;;;;;22.08;5.78;;;;;;;;;;4942235;28;20075;-58
2022/01/27 08:47:41;;;;;;;20.77;5.55;;;;;;;;;;4949801;28;20122;-58
2022/01/27 08:50:09;;;;;;;26.27;6.57;;;;;;;;;;4952637;28;20664;-58
2022/01/27 08:52:42;;;;;;;23.40;5.80;;;;;;;;;;4959833;28;20200;-58
2022/01/27 08:55:10;;;;;;;27.83;6.15;;;;;;;;;;4944198;28;20061;-58
2022/01/27 08:57:39;;;;;;;19.70;5.57;;;;;;;;;;4960872;28;20034;-59
2022/01/27 09:00:06;;;;;;;19.63;5.05;;;;;;;;;;4958127;28;20042;-57
2022/01/27 09:02:31;;;;;;;19.25;4.55;;;;;;;;;;4944727;28;20036;-58
2022/01/27 09:05:00;;;;;;;20.45;5.00;;;;;;;;;;4961797;28;20062;-59
2022/01/27 09:07:26;;;;;;;19.30;4.85;;;;;;;;;;4958932;28;20694;-58
2022/01/27 09:09:53;;;;;;;12.02;4.72;;;;;;;;;;4960676;28;20103;-59
2022/01/27 09:12:23;;;;;;;21.05;4.70;;;;;;;;;;4960502;28;20609;-58
2022/01/27 09:14:51;;;;;;;28.23;5.03;;;;;;;;;;4951387;28;20050;-58
2022/01/27 09:17:19;;;;;;;13.27;4.00;;;;;;;;;;4960959;28;20119;-59
2022/01/27 09:19:46;;;;;;;18.05;4.47;;;;;;;;;;4927730;28;20749;-59
2022/01/27 09:22:14;;;;;;;26.45;3.60;;;;;;;;;;4949791;28;20507;-59
2022/01/27 09:24:51;;;;;;;24.42;3.35;;;;;;;;;;4960193;28;20137;-58
2022/01/27 09:27:17;;;;;;;26.63;4.30;;;;;;;;;;4963736;28;20542;-59
2022/01/27 09:29:47;;;;;;;16.48;3.80;;;;;;;;;;4965579;28;20030;-58
2022/01/27 09:32:15;;;;;;;13.55;3.28;;;;;;;;;;4948637;28;20859;-58
2022/01/27 09:34:46;;;;;;;17.40;3.70;;;;;;;;;;4964080;28;20126;-55
2022/01/27 09:37:14;;;;;;;26.65;3.65;;;;;;;;;;4946170;28;20111;-59
2022/01/27 09:39:43;;;;;;;25.90;4.53;;;;;;;;;;4950442;28;20035;-58
2022/01/27 09:42:08;;;;;;;14.90;3.88;;;;;;;;;;4963689;28;20038;-57
2022/01/27 09:44:37;;;;;;;13.93;3.22;;;;;;;;;;4946321;28;20040;-59
2022/01/27 09:47:08;;;;;;;22.75;4.45;;;;;;;;;;4952693;28;20041;-59
2022/01/27 09:49:42;;;;;;;26.58;3.70;;;;;;;;;;4961533;28;20027;-59
2022/01/27 09:52:08;;;;;;;21.13;3.50;;;;;;;;;;4955061;28;20068;-58
2022/01/27 09:54:37;;;;;;;21.63;3.42;;;;;;;;;;4963471;28;20105;-58
2022/01/27 09:57:03;;;;;;;21.35;3.75;;;;;;;;;;4930457;28;20038;-59
2022/01/27 09:59:28;;;;;;;14.38;3.45;;;;;;;;;;4946725;28;20580;-59
2022/01/27 10:02:05;;;;;;;18.13;4.85;;;;;;;;;;4962226;28;20042;-58
2022/01/27 10:04:42;;;;;;;13.82;3.08;;;;;;;;;;4964579;28;20137;-60
2022/01/27 10:07:15;;;;;;;24.98;3.63;;;;;;;;;;4947645;28;21124;-58
2022/01/27 10:09:54;;;;;;;12.13;3.03;;;;;;;;;;4964315;28;20058;-59
2022/01/27 10:12:26;;;;;;;19.05;3.20;;;;;;;;;;4962693;28;20034;-57
2022/01/27 10:15:01;;;;;;;11.15;2.90;;;;;;;;;;4949474;28;20039;-59
2022/01/27 10:17:37;;;;;;;16.52;3.83;;;;;;;;;;4943292;28;20047;-57
2022/01/27 10:20:05;;;;;;;11.88;2.67;;;;;;;;;;4936354;28;20073;-58
2022/01/27 10:22:36;;;;;;;20.67;3.63;;;;;;;;;;4944641;28;20031;-56
2022/01/27 10:25:03;;;;;;;25.92;3.08;;;;;;;;;;4944871;28;21006;-59
2022/01/27 10:27:46;;;;;;;14.27;3.13;;;;;;;;;;4944641;28;20466;-58
2022/01/27 10:32:52;;;;;;;33.22;3.63;;;;;;;;;;4943595;28;20027;-59
2022/01/27 10:35:20;;;;;;;22.45;3.95;;;;;;;;;;4944199;28;20109;-61
2022/01/27 10:37:57;;;;;;;12.48;2.65;;;;;;;;;;4944264;28;20122;-60
2022/01/27 10:40:31;;;;;;;17.55;3.55;;;;;;;;;;4944305;28;20039;-58
2022/01/27 10:43:01;;;;;;;22.80;3.42;;;;;;;;;;4948200;28;20043;-60
2022/01/27 10:45:26;;;;;;;15.90;3.05;;;;;;;;;;4948487;28;20045;-58
2022/01/27 10:48:07;;;;;;;16.17;3.22;;;;;;;;;;4938681;28;20047;-59
2022/01/27 10:51:14;;;;;;;14.45;2.50;;;;;;;;;;4926569;28;20615;-59
2022/01/27 10:53:55;;;;;;;19.17;3.63;;;;;;;;;;4937343;28;20062;-59
2022/01/27 10:56:26;;;;;;;14.40;3.67;;;;;;;;;;4941239;28;20043;-60
2022/01/27 10:58:53;;;;;;;17.77;3.25;;;;;;;;;;4941156;28;20677;-58
2022/01/27 11:01:23;;;;;;;20.50;2.92;;;;;;;;;;4942046;28;20078;-60
2022/01/27 11:03:51;;;;;;;7.88;2.67;;;;;;;;;;4943322;28;20157;-59
2022/01/27 11:06:22;;;;;;;20.30;2.97;;;;;;;;;;4943816;28;20596;-58
2022/01/27 11:08:58;;;;;;;20.65;2.95;;;;;;;;;;4948359;28;21385;-59
2022/01/27 11:11:26;;;;;;;15.38;2.83;;;;;;;;;;4956098;28;20038;-59
2022/01/27 11:13:53;;;;;;;22.27;2.97;;;;;;;;;;4942370;28;20031;-58
2022/01/27 11:16:26;;;;;;;20.60;2.92;;;;;;;;;;4956973;28;20510;-59
2022/01/27 11:18:56;;;;;;;20.38;3.35;;;;;;;;;;4958043;28;20045;-58
2022/01/27 11:21:31;;;;;;;17.05;3.17;;;;;;;;;;4961487;28;20030;-58
2022/01/27 11:24:08;;;;;;;18.98;2.30;;;;;;;;;;4935812;28;20047;-59
2022/01/27 11:26:40;;;;;;;20.27;3.45;;;;;;;;;;4961778;28;20034;-59
2022/01/27 11:29:10;;;;;;;23.80;3.25;;;;;;;;;;4960749;28;20062;-59
2022/01/27 11:31:57;;;;;;;17.63;2.65;;;;;;;;;;4961201;28;20506;-58
2022/01/27 11:34:42;;;;;;;11.30;2.00;;;;;;;;;;4957964;28;20069;-58
2022/01/27 11:37:08;;;;;;;23.02;3.60;;;;;;;;;;4962708;28;20847;-59
2022/01/27 11:39:50;;;;;;;16.88;3.13;;;;;;;;;;4962114;28;20109;-58
2022/01/27 11:42:18;;;;;;;30.35;3.40;;;;;;;;;;4959852;28;20073;-59
2022/01/27 11:44:45;;;;;;;25.88;2.97;;;;;;;;;;4961534;28;20034;-58
2022/01/27 11:47:12;;;;;;;18.63;3.17;;;;;;;;;;4960321;28;20072;-58
2022/01/27 11:49:53;;;;;;;17.25;2.70;;;;;;;;;;4944935;28;20113;-59
2022/01/27 11:52:20;;;;;;;26.55;3.70;;;;;;;;;;4958381;28;20042;-59
2022/01/27 11:54:45;;;;;;;17.20;2.72;;;;;;;;;;4945683;28;20038;-60
2022/01/27 11:57:32;;;;;;;18.92;2.75;;;;;;;;;;4959623;28;20039;-59
2022/01/27 12:00:07;;;;;;;22.17;3.22;;;;;;;;;;4949906;28;20026;-59
2022/01/27 12:02:53;;;;;;;18.63;2.55;;;;;;;;;;4937363;28;20081;-60
2022/01/27 12:05:18;;;;;;;18.40;2.38;;;;;;;;;;4944231;28;20045;-59
2022/01/27 12:08:03;;;;;;;22.70;2.88;;;;;;;;;;4961946;28;20034;-58
2022/01/27 12:10:50;;;;;;;22.70;2.80;;;;;;;;;;4959034;28;20356;-60
2022/01/27 12:13:46;;;;;;;22.27;2.50;;;;;;;;;;4961485;28;20042;-59
2022/01/27 12:19:04;;;;;;;21.63;2.38;;;;;;;;;;4943363;28;20038;-59
2022/01/27 12:21:41;;;;;;;23.33;2.88;;;;;;;;;;4942462;28;20041;-59
2022/01/27 12:24:13;;;;;;;20.35;3.42;;;;;;;;;;4941387;28;20050;-59
2022/01/27 12:26:44;;;;;;;12.93;2.30;;;;;;;;;;4957592;28;20039;-59
2022/01/27 12:29:09;;;;;;;16.58;2.60;;;;;;;;;;4939869;28;20028;-59
2022/01/27 12:31:38;;;;;;;13.30;2.05;;;;;;;;;;4942429;28;20027;-61
2022/01/27 12:34:04;;;;;;;12.60;2.22;;;;;;;;;;4940197;28;20747;-59
2022/01/27 12:36:34;;;;;;;17.02;3.55;;;;;;;;;;4939887;28;20030;-57
2022/01/27 12:38:59;;;;;;;15.35;2.17;;;;;;;;;;4946681;28;20125;-60
2022/01/27 12:41:27;;;;;;;20.05;2.20;;;;;;;;;;4939578;28;20485;-59
2022/01/27 12:43:56;;;;;;;30.70;3.78;;;;;;;;;;4935691;28;20046;-59
2022/01/27 12:46:21;;;;;;;30.73;3.33;;;;;;;;;;4940238;28;20015;-59
2022/01/27 12:48:49;;;;;;;15.80;2.92;;;;;;;;;;4942019;28;20143;-60
2022/01/27 12:51:14;;;;;;;23.60;2.95;;;;;;;;;;4939660;28;20034;-58
2022/01/27 12:53:40;;;;;;;23.05;3.05;;;;;;;;;;4939213;28;20027;-57
2022/01/27 12:56:09;;;;;;;19.52;2.78;;;;;;;;;;4944345;28;20800;-59
2022/01/27 12:58:35;;;;;;;28.60;3.08;;;;;;;;;;4955610;28;20439;-59
2022/01/27 13:01:01;;;;;;;17.75;2.90;;;;;;;;;;4922978;28;20090;-59
2022/01/27 13:03:29;;;;;;;30.10;3.28;;;;;;;;;;4939692;28;20035;-59
2022/01/27 13:06:03;;;;;;;16.67;2.40;;;;;;;;;;4930604;28;20037;-58
2022/01/27 13:08:32;;;;;;;20.17;2.88;;;;;;;;;;4938926;28;20030;-59
2022/01/27 13:11:03;;;;;;;19.67;2.33;;;;;;;;;;4938103;28;20093;-59
2022/01/27 13:13:36;;;;;;;17.42;2.50;;;;;;;;;;4922280;28;20035;-59
2022/01/27 13:16:08;;;;;;;19.63;2.20;;;;;;;;;;4942003;28;20507;-59
2022/01/27 13:21:26;;;;;;;17.67;2.50;;;;;;;;;;4938364;28;20674;-59
2022/01/27 13:24:10;;;;;;;16.45;3.08;;;;;;;;;;4940624;28;21952;-58
2022/01/27 13:26:43;;;;;;;21.45;3.05;;;;;;;;;;4952967;28;20034;-58
2022/01/27 13:29:09;;;;;;;17.67;2.05;;;;;;;;;;4955556;28;20055;-60
2022/01/27 13:31:35;;;;;;;22.20;2.75;;;;;;;;;;4942384;28;20062;-58
2022/01/27 13:34:11;;;;;;;12.18;2.17;;;;;;;;;;4925379;28;20047;-58
2022/01/27 13:36:40;;;;;;;23.17;3.35;;;;;;;;;;4930380;28;20129;-59
2022/01/27 13:41:37;;;;;;;19.35;2.60;;;;;;;;;;4938712;28;20043;-59
2022/01/27 13:44:04;;;;;;;17.75;2.53;;;;;;;;;;4938410;28;20046;-58
2022/01/27 13:46:39;;;;;;;30.05;2.75;;;;;;;;;;4942191;28;20404;-59
2022/01/27 13:49:13;;;;;;;19.48;3.05;;;;;;;;;;4937469;28;20426;-59
2022/01/27 13:51:50;;;;;;;12.90;2.50;;;;;;;;;;4937368;28;20039;-60
2022/01/27 13:54:20;;;;;;;14.65;2.22;;;;;;;;;;4939568;28;20610;-59
2022/01/27 13:56:52;;;;;;;23.08;2.88;;;;;;;;;;4945085;28;20042;-59
2022/01/27 13:59:28;;;;;;;20.02;2.13;;;;;;;;;;4944514;28;20058;-60
2022/01/27 14:02:27;;;;;;;15.00;2.40;;;;;;;;;;4939587;28;20051;-58
2022/01/27 14:04:57;;;;;;;26.40;2.67;;;;;;;;;;4932497;28;20046;-58
2022/01/27 14:07:27;;;;;;;27.27;3.08;;;;;;;;;;4952685;28;20192;-58
2022/01/27 14:09:54;;;;;;;20.65;2.58;;;;;;;;;;4946383;28;20030;-61
2022/01/27 14:12:23;;;;;;;16.17;2.60;;;;;;;;;;4955186;28;20023;-58
2022/01/27 14:14:54;;;;;;;20.50;2.55;;;;;;;;;;4947674;28;20122;-58
2022/01/27 14:17:24;;;;;;;19.10;2.03;;;;;;;;;;4939067;28;20071;-58
2022/01/27 14:19:55;;;;;;;23.95;3.58;;;;;;;;;;4943261;28;20034;-59
2022/01/27 14:22:29;;;;;;;15.45;2.92;;;;;;;;;;4959449;28;20042;-58
2022/01/27 14:25:02;;;;;;;19.50;2.58;;;;;;;;;;4940874;28;20043;-59
2022/01/27 14:27:31;;;;;;;20.00;2.72;;;;;;;;;;4942752;28;20038;-59
2022/01/27 14:29:56;;;;;;;22.17;2.22;;;;;;;;;;4943351;28;20022;-59
2022/01/27 14:32:24;;;;;;;24.30;3.03;;;;;;;;;;4930471;28;20048;-60
2022/01/27 14:34:49;;;;;;;14.13;1.95;;;;;;;;;;4957138;28;20030;-59
2022/01/27 14:37:17;;;;;;;15.88;2.83;;;;;;;;;;4944422;28;20688;-60
2022/01/27 14:39:46;;;;;;;20.98;3.30;;;;;;;;;;4956274;28;20031;-59
2022/01/27 14:42:21;;;;;;;24.58;2.63;;;;;;;;;;4956002;28;20067;-58
2022/01/27 14:44:46;;;;;;;23.10;3.42;;;;;;;;;;4932022;28;20485;-61
2022/01/27 14:47:12;;;;;;;17.83;2.97;;;;;;;;;;4938624;28;20145;-60
2022/01/27 14:49:45;;;;;;;35.30;2.70;;;;;;;;;;4943992;28;20079;-59
2022/01/27 14:52:15;;;;;;;19.93;2.50;;;;;;;;;;4952912;28;20134;-59
2022/01/27 14:54:41;;;;;;;23.60;2.90;;;;;;;;;;4922690;28;20366;-59
2022/01/27 14:57:10;;;;;;;7.00;1.55;;;;;;;;;;4939046;28;20732;-60
2022/01/27 14:59:44;;;;;;;24.85;2.95;;;;;;;;;;4952551;28;20502;-59
2022/01/27 15:02:14;;;;;;;19.77;3.35;;;;;;;;;;4939540;28;20180;-60
2022/01/27 15:04:43;;;;;;;24.30;2.72;;;;;;;;;;4947773;28;20031;-59
2022/01/27 15:07:22;;;;;;;18.58;2.42;;;;;;;;;;4953969;28;20023;-59
2022/01/27 15:09:47;;;;;;;17.90;2.55;;;;;;;;;;4939458;28;20143;-59
2022/01/27 15:12:15;;;;;;;27.75;3.35;;;;;;;;;;4939286;28;20037;-61
2022/01/27 15:20:14;;;;;;;13.55;2.08;;;;;;;;;;4941144;28;20034;-60
2022/01/27 15:22:47;;;;;;;19.23;3.42;;;;;;;;;;4929104;28;20062;-60
2022/01/27 15:25:16;;;;;;;16.17;2.05;;;;;;;;;;4941688;28;20035;-59
2022/01/27 15:27:42;;;;;;;24.67;2.85;;;;;;;;;;4943099;28;20858;-58
2022/01/27 15:30:10;;;;;;;25.27;2.17;;;;;;;;;;4942333;28;20042;-60
2022/01/27 15:32:36;;;;;;;20.42;2.78;;;;;;;;;;4941214;28;20040;-60